AirNav   Pilot Hours Calculator
 
 930 users online  

CA64 Olive View Medical Center Heliport
Sylmar, California, USA

GOING TO SYLMAR?


FAA INFORMATION EFFECTIVE 26 JANUARY 2023

Location

FAA Identifier: CA64
Lat/Long: 34-19-36.5900N 118-26-42.1600W
34-19.609833N 118-26.702667W
34.3268306,-118.4450444
(estimated)
Elevation: 1460 ft. / 445 m (estimated)
From city: 1 mile NE of SYLMAR, CA
Time zone: UTC -8 (UTC -7 during Daylight Saving Time)
Zip code: 91342

Heliport Operations

Heliport use: Private use. Permission required prior to landing
Activation date: 09/2008
Control tower: no
ARTCC: LOS ANGELES CENTER
FSS: HAWTHORNE FLIGHT SERVICE STATION
Attendance: CONTINUOUS
Wind indicator: lighted
Segmented circle: no
Lights: SS-SR

Heliport Communications

WX AWOS-3PT at WHP (4 nm S): 132.1 (818-899-9820)
WX ASOS at VNY (7 nm S): PHONE 818-904-9213
WX ASOS at BUR (9 nm SE): PHONE 818-841-1384
WX ASOS at SMO (19 nm S): PHONE 310-392-6453

Nearby radio navigation aids

VOR radial/distance  VOR name  Freq  Var
VNYr005/6.6VAN NUYS VOR/DME113.1015E
SMOr347/19.0SANTA MONICA VOR/DME110.8015E
FIMr080/21.7FILLMORE VORTAC112.5015E
LHSr148/22.3LAKE HUGHES VORTAC114.3515E
LAXr343/23.6LOS ANGELES VORTAC113.6015E
PMDr211/26.3PALMDALE VORTAC114.5015E
VTUr052/32.6VENTURA VOR/DME108.2015E
CMAr063/32.9CAMARILLO VOR/DME115.8015E
GMNr128/35.3GORMAN VORTAC116.1016E
POMr280/35.9POMONA VORTAC110.4015E
SLIr314/37.9SEAL BEACH VORTAC115.7015E

Heliport Services

Runway Information

Helipad H1

Dimensions: 56 x 56 ft. / 17 x 17 m
Surface: concrete
Runway edge lights: PERI
Latitude: 34-19.609833N
Longitude: 118-26.702667W
Elevation: 1460.0 ft.
Traffic pattern: leftleft

Heliport Ownership and Management from official FAA records

Ownership: Privately-owned
Owner: COUNTY OF LOS ANGELES
211 WEST TEMPLE STREET
LOS ANGELES, CA 90012
Phone 310-421-2701
Manager: THANH TRAN - FACILITIES
14445 OLIVE VIEW DRIVE
SYLMAR, CA 91342
Phone 818-364-3325

Additional Remarks

FOR CD CTC LOS ANGELES ARTCC AT 661-575-2079.

Instrument Procedures

There are no published instrument procedures at CA64.

Some nearby airports with instrument procedures:

KWHP - Whiteman Airport (4 nm S)
KVNY - Van Nuys Airport (7 nm S)
KBUR - Bob Hope Airport (9 nm SE)
KSMO - Santa Monica Municipal Airport (19 nm S)
KLAX - Los Angeles International Airport (23 nm S)
 
Loc | Ops | Rwys | IFR | FBO | Links
Com | Nav | Svcs | Stats | Notes
Aerial photo
No photo
 
Sectional chart

 
Airport distance calculator
Flying to Olive View Medical Center Heliport? Find the distance to fly.

From to CA64

Sunrise and sunset
Times for 08-Feb-2023
 Local
(UTC-8)
 Zulu
(UTC)
Morning civil twilight06:2114:21
Sunrise06:4714:47
Sunset17:2901:29
Evening civil twilight17:5501:55

Current date and time
Zulu (UTC)  09-Feb-2023 04:24:09
Local (UTC-8)  08-Feb-2023 20:24:09
 
METAR
KWHP 
5nm S 
090153Z 00000KT 10SM SKC 18/M02 A3022
KVNY 
7nm S 
090351Z 00000KT 10SM CLR 16/01 A3019 RMK AO2 SLP221 T01610011
KBUR 
9nm SE 
090353Z 00000KT 10SM CLR 14/01 A3020 RMK AO2 SLP219 T01440011 $
KSMO 
19nm S 
090351Z 00000KT 10SM CLR 13/08 A3020 RMK AO2 SLP224 T01280083
KCQT 
20nm SE 
090347Z AUTO 00000KT 10SM CLR 14/07 A3020 RMK AO2 SLP228 T01440067
TAF
KVNY 
7nm S 
081723Z 0818/0918 VRB03KT P6SM SKC FM082200 14006KT P6SM SKC FM090200 35007KT P6SM SKC FM091500 36012KT P6SM SKC
KBUR 
9nm SE 
081723Z 0818/0918 VRB03KT P6SM SKC FM082100 17008KT P6SM SKC FM090200 VRB03KT P6SM SKC
KSMO 
19nm S 
081723Z 0818/0918 VRB03KT P6SM SKC FM082000 23008KT P6SM SKC FM090200 VRB03KT P6SM SKC
NOTAMs
Click for the latest NOTAMs
NOTAMs are issued by the DoD/FAA and will open in a separate window not controlled by AirNav.

 

 
 

Would you like to see your business listed on this page?

 If your business provides an interesting product or service to pilots, flight crews, aircraft, or users of the Olive View Medical Center Heliport, you should consider listing it here.  To start the listing process, click on the button below
 
Add a business
 

Other Pages about Olive View Medical Center Heliport

Update a link
 
Copyright © AirNav, LLC. All rights reserved. Privacy Policy  Contact